首页
METAR-TAF:

METAR-TAF

机场 :

Julian Carroll Airport

杰克逊, 肯塔基州, 美国

纬度: 37-35-29N, 经度: 083-18-52W, 海拔: 421米

当前天气观测

该预报发布于41分钟前的18:53 UTC
风速4节,风向多变
温度 28°C
湿度 70%
气压 1022 hPa
能見度: 16.1公里
多云层高于3200英尺

METAR: KJKL 231853Z AUTO VRB04KT 10SM BKN032 28/22 A3018 RMK AO2 SLP204 T02830217

时间: 15:34 (19:34 UTC)

预报

该预报发布于2小时和9分钟前的17:25 UTC
预报有效从23日的 18点(UTC)到 24日的 18点(UTC)
风速9节,风向西转西南
能見度: 10公里
散云层高于4000英尺
多云层高于10000英尺
附近有阵雨
从 23日的 2000点(UTC)
风速9节,风向西转西南
能見度: 10公里
少量云层高于5000英尺
散云层高于10000英尺
从 24日的 0700点(UTC)
风速节,风向
能見度: 10公里
多云层高于15000英尺

TAF: KJKL 231725Z 2318/2418 24009KT P6SM VCSH SCT040 BKN100 FM232000 25009KT P6SM FEW050 SCT100 FM240700 00000KT P6SM BKN150

超过4000个机场的气象观测和天气预报(METAR&TAF报告)。

可查询的气象台以黄色和红色小点在地图上表示。

将鼠标移到小点上方,可查看气象台名称。

然后点击查看天气观测和预报。

如需切换地图:点击带黑十字的绿色按钮放大地图;点击带横线的绿色按钮缩小地图;或者点击绿色箭头查看邻近地区的地图。


METAR-TAF: